Terminal Aerodrome Forecast
Issued by NWS

Home | Current Version | Previous Version | Text Only | Print | Product List | Glossary On
Versions: 1 2 3 4 5 6 7 8 9 10 11 12 13 14 15 16 17
000
FTUS43 KDLH 252337
TAFHYR
TAF
KHYR 252337Z 2600/2624 02005KT 6SM BR VCTS BKN008CB OVC025
      TEMPO 2600/2602 6SM -TSRA BR SCT008CB OVC015CB
     FM260400 VRB03KT 5SM BR VCSH OVC008
     FM260700 VRB03KT 2SM -SHRA BR OVC003
     FM261500 35004KT 3SM BR VCSH OVC008
     FM261800 31005KT P6SM OVC010=

USA.gov is the U.S. government's official web portal to all federal, state and local government web resources and services.